createdAt,value
2024-01-11T00:00:13.773Z,603.00
2024-01-11T00:01:13.839Z,600.00
2024-01-11T00:02:13.937Z,604.00
2024-01-11T00:03:13.955Z,604.00
2024-01-11T00:04:14.032Z,606.00
2024-01-11T00:05:14.212Z,603.00
2024-01-11T00:06:14.241Z,605.00
2024-01-11T00:07:14.280Z,601.00
2024-01-11T00:08:14.290Z,602.00
2024-01-11T00:09:14.340Z,600.00
2024-01-11T00:10:14.482Z,603.00
2024-01-11T00:11:17.514Z,603.00
2024-01-11T00:12:14.514Z,603.00
2024-01-11T00:13:14.534Z,604.00
2024-01-11T00:14:14.588Z,603.00
2024-01-11T00:15:14.696Z,603.00
2024-01-11T00:16:14.608Z,605.00
2024-01-11T00:17:14.708Z,603.00
2024-01-11T00:18:14.736Z,599.00
2024-01-11T00:19:14.902Z,604.00
2024-01-11T00:20:14.862Z,607.00
2024-01-11T00:21:14.746Z,603.00
2024-01-11T00:22:14.775Z,604.00
2024-01-11T00:23:14.849Z,607.00
2024-01-11T00:24:14.840Z,605.00
2024-01-11T00:25:14.855Z,604.00
2024-01-11T00:26:15.061Z,602.00
2024-01-11T00:27:14.923Z,604.00
2024-01-11T00:28:14.961Z,603.00
2024-01-11T00:29:14.999Z,605.00
2024-01-11T00:30:15.029Z,605.00
2024-01-11T00:31:15.049Z,605.00
2024-01-11T00:32:15.092Z,605.00
2024-01-11T00:33:15.158Z,606.00
2024-01-11T00:34:15.262Z,603.00
2024-01-11T00:35:15.160Z,603.00
2024-01-11T00:36:15.169Z,603.00
2024-01-11T00:37:15.195Z,603.00
2024-01-11T00:38:15.269Z,603.00
2024-01-11T00:39:15.258Z,606.00
2024-01-11T00:40:15.288Z,602.00
2024-01-11T00:41:15.366Z,602.00
2024-01-11T00:42:15.340Z,603.00
2024-01-11T00:43:15.363Z,603.00
2024-01-11T00:44:15.457Z,602.00
2024-01-11T00:45:16.087Z,600.00
2024-01-11T00:46:15.442Z,602.00
2024-01-11T00:47:15.495Z,602.00
2024-01-11T00:48:15.591Z,603.00
2024-01-11T00:49:15.631Z,605.00
2024-01-11T00:50:15.639Z,603.00
2024-01-11T00:51:15.690Z,604.00
2024-01-11T00:52:15.750Z,609.00
2024-01-11T00:53:16.162Z,608.00
2024-01-11T00:54:15.899Z,604.00
2024-01-11T00:55:15.976Z,609.00
2024-01-11T00:56:16.065Z,606.00
2024-01-11T00:57:16.094Z,607.00
2024-01-11T00:58:16.166Z,608.00
2024-01-11T00:59:16.214Z,609.00
2024-01-11T01:00:16.267Z,607.00
2024-01-11T01:01:16.404Z,604.00
2024-01-11T01:02:16.468Z,602.00
2024-01-11T01:03:16.508Z,607.00
2024-01-11T01:04:16.652Z,606.00
2024-01-11T01:05:16.668Z,607.00
2024-01-11T01:06:16.794Z,605.00
2024-01-11T01:07:16.750Z,603.00
2024-01-11T01:08:16.876Z,604.00
2024-01-11T01:09:16.897Z,603.00
2024-01-11T01:10:16.968Z,606.00
2024-01-11T01:11:17.161Z,607.00
2024-01-11T01:12:17.100Z,606.00
2024-01-11T01:13:17.187Z,608.00
2024-01-11T01:14:17.311Z,605.00
2024-01-11T01:15:17.332Z,604.00
2024-01-11T01:16:17.384Z,604.00
2024-01-11T01:17:17.670Z,604.00
2024-01-11T01:18:17.754Z,603.00
2024-01-11T01:19:17.634Z,603.00
2024-01-11T01:20:17.701Z,608.00
2024-01-11T01:21:17.690Z,607.00
2024-01-11T01:22:17.754Z,604.00
2024-01-11T01:23:17.849Z,603.00
2024-01-11T01:24:17.882Z,605.00
2024-01-11T01:25:17.969Z,605.00
2024-01-11T01:26:18.071Z,603.00
2024-01-11T01:27:18.124Z,606.00
2024-01-11T01:28:18.153Z,605.00
2024-01-11T01:29:18.312Z,601.00
2024-01-11T01:30:18.317Z,607.00
2024-01-11T01:31:18.364Z,604.00
2024-01-11T01:32:18.558Z,607.00
2024-01-11T01:33:18.684Z,604.00
2024-01-11T01:34:18.626Z,604.00
2024-01-11T01:35:18.680Z,603.00
2024-01-11T01:36:18.680Z,604.00
2024-01-11T01:37:18.761Z,606.00
2024-01-11T01:38:18.872Z,605.00
2024-01-11T01:39:18.871Z,607.00
2024-01-11T01:40:18.928Z,606.00
2024-01-11T01:41:19.042Z,606.00
2024-01-11T01:42:19.062Z,604.00
2024-01-11T01:43:19.127Z,606.00
2024-01-11T01:44:19.299Z,604.00
2024-01-11T01:45:19.269Z,605.00
2024-01-11T01:46:19.333Z,605.00
2024-01-11T01:47:19.462Z,607.00
2024-01-11T01:48:19.592Z,602.00
2024-01-11T01:49:19.596Z,605.00
2024-01-11T01:50:19.634Z,605.00
2024-01-11T01:51:19.662Z,607.00
2024-01-11T01:52:19.729Z,603.00
2024-01-11T01:53:19.844Z,605.00
2024-01-11T01:54:19.862Z,606.00
2024-01-11T01:55:19.947Z,606.00
2024-01-11T01:56:20.008Z,603.00
2024-01-11T01:57:20.072Z,606.00
2024-01-11T01:58:20.152Z,606.00
2024-01-11T01:59:20.227Z,603.00
2024-01-11T02:00:20.277Z,606.00
2024-01-11T02:01:20.384Z,606.00
2024-01-11T02:02:20.466Z,605.00
2024-01-11T02:03:20.510Z,602.00
2024-01-11T02:04:20.547Z,604.00
2024-01-11T02:05:20.806Z,604.00
2024-01-11T02:06:20.746Z,605.00
2024-01-11T02:07:20.749Z,603.00
2024-01-11T02:08:20.832Z,601.00
2024-01-11T02:09:20.880Z,602.00
2024-01-11T02:10:20.951Z,602.00
2024-01-11T02:11:21.024Z,601.00
2024-01-11T02:12:21.077Z,606.00
2024-01-11T02:13:21.151Z,606.00
2024-01-11T02:14:21.235Z,606.00
2024-01-11T02:15:21.310Z,604.00
2024-01-11T02:16:21.370Z,604.00
2024-01-11T02:17:21.458Z,604.00
2024-01-11T02:18:21.542Z,601.00
2024-01-11T02:19:21.617Z,606.00
2024-01-11T02:20:21.656Z,605.00
2024-01-11T02:21:21.693Z,603.00
2024-01-11T02:22:21.786Z,600.00
2024-01-11T02:23:21.861Z,604.00
2024-01-11T02:24:21.879Z,608.00
2024-01-11T02:25:21.942Z,604.00
2024-01-11T02:26:22.028Z,604.00
2024-01-11T02:27:22.077Z,606.00
2024-01-11T02:28:22.150Z,604.00
2024-01-11T02:29:22.252Z,604.00
2024-01-11T02:30:22.310Z,603.00
2024-01-11T02:31:22.346Z,602.00
2024-01-11T02:32:22.552Z,604.00
2024-01-11T02:33:22.613Z,604.00
2024-01-11T02:34:22.589Z,605.00
2024-01-11T02:35:22.621Z,604.00
2024-01-11T02:36:22.666Z,604.00
2024-01-11T02:37:22.724Z,607.00
2024-01-11T02:38:22.847Z,600.00
2024-01-11T02:39:22.862Z,604.00
2024-01-11T02:40:22.933Z,603.00
2024-01-11T02:41:23.020Z,602.00
2024-01-11T02:42:23.086Z,605.00
2024-01-11T02:43:23.149Z,605.00
2024-01-11T02:44:23.303Z,603.00
2024-01-11T02:45:23.294Z,602.00
2024-01-11T02:46:23.383Z,604.00
2024-01-11T02:47:23.442Z,606.00
2024-01-11T02:48:23.540Z,604.00
2024-01-11T02:49:23.691Z,603.00
2024-01-11T02:50:23.672Z,606.00
2024-01-11T02:51:23.717Z,606.00
2024-01-11T02:52:23.750Z,610.00
2024-01-11T02:53:23.853Z,605.00
2024-01-11T02:54:23.881Z,604.00
2024-01-11T02:55:24.001Z,606.00
2024-01-11T02:56:24.048Z,605.00
2024-01-11T02:57:24.073Z,604.00
2024-01-11T02:58:24.170Z,604.00
2024-01-11T02:59:24.255Z,603.00
2024-01-11T03:00:24.271Z,604.00
2024-01-11T03:01:24.341Z,606.00
2024-01-11T03:02:24.482Z,604.00
2024-01-11T03:03:24.471Z,604.00
2024-01-11T03:04:24.532Z,608.00
2024-01-11T03:05:24.730Z,601.00
2024-01-11T03:06:24.705Z,610.00
2024-01-11T03:07:24.728Z,607.00
2024-01-11T03:08:24.856Z,606.00
2024-01-11T03:09:24.863Z,609.00
2024-01-11T03:10:24.933Z,606.00
2024-01-11T03:11:25.070Z,604.00
2024-01-11T03:12:25.053Z,604.00
2024-01-11T03:13:25.122Z,604.00
2024-01-11T03:14:25.185Z,602.00
2024-01-11T03:15:25.235Z,604.00
2024-01-11T03:16:25.301Z,608.00
2024-01-11T03:17:25.435Z,607.00
2024-01-11T03:18:25.471Z,603.00
2024-01-11T03:19:25.529Z,605.00
2024-01-11T03:20:25.609Z,602.00
2024-01-11T03:21:25.603Z,603.00
2024-01-11T03:22:25.677Z,606.00
2024-01-11T03:23:25.762Z,604.00
2024-01-11T03:24:25.787Z,605.00
2024-01-11T03:25:25.848Z,602.00
2024-01-11T03:26:25.990Z,605.00
2024-01-11T03:27:25.963Z,602.00
2024-01-11T03:28:26.031Z,605.00
2024-01-11T03:29:26.133Z,603.00
2024-01-11T03:30:26.181Z,605.00
2024-01-11T03:31:26.205Z,602.00
2024-01-11T03:32:26.361Z,606.00
2024-01-11T03:33:26.445Z,605.00
2024-01-11T03:34:26.474Z,602.00
2024-01-11T03:35:26.496Z,603.00
2024-01-11T03:36:26.536Z,603.00
2024-01-11T03:37:26.588Z,602.00
2024-01-11T03:38:26.667Z,603.00
2024-01-11T03:39:26.718Z,605.00
2024-01-11T03:40:26.786Z,603.00
2024-01-11T03:41:26.890Z,601.00
2024-01-11T03:42:26.915Z,605.00
2024-01-11T03:43:26.971Z,602.00
2024-01-11T03:44:27.056Z,603.00
2024-01-11T03:45:27.107Z,606.00
2024-01-11T03:46:27.188Z,605.00
2024-01-11T03:47:27.340Z,604.00
2024-01-11T03:48:27.362Z,602.00
2024-01-11T03:49:27.500Z,603.00
2024-01-11T03:50:27.459Z,603.00
2024-01-11T03:51:27.510Z,605.00
2024-01-11T03:52:27.635Z,600.00
2024-01-11T03:53:27.706Z,605.00
2024-01-11T03:54:27.736Z,607.00
2024-01-11T03:55:27.789Z,608.00
2024-01-11T03:56:27.890Z,608.00
2024-01-11T03:57:27.917Z,606.00
2024-01-11T03:58:27.988Z,606.00
2024-01-11T03:59:28.612Z,609.00
2024-01-11T04:00:28.117Z,607.00
2024-01-11T04:01:28.188Z,607.00
2024-01-11T04:02:28.273Z,605.00
2024-01-11T04:03:28.341Z,604.00
2024-01-11T04:04:28.353Z,607.00
2024-01-11T04:05:28.458Z,606.00
2024-01-11T04:06:28.578Z,605.00
2024-01-11T04:07:28.541Z,602.00
2024-01-11T04:08:28.630Z,608.00
2024-01-11T04:09:28.748Z,610.00
2024-01-11T04:10:28.758Z,610.00
2024-01-11T04:11:28.871Z,609.00
2024-01-11T04:12:28.876Z,611.00
2024-01-11T04:13:28.934Z,609.00
2024-01-11T04:14:29.033Z,610.00
2024-01-11T04:15:29.066Z,610.00
2024-01-11T04:16:29.135Z,606.00
2024-01-11T04:17:29.334Z,607.00
2024-01-11T04:18:29.291Z,605.00
2024-01-11T04:19:29.436Z,608.00
2024-01-11T04:20:29.446Z,606.00
2024-01-11T04:21:29.464Z,605.00
2024-01-11T04:22:29.531Z,604.00
2024-01-11T04:23:29.624Z,604.00
2024-01-11T04:24:29.638Z,603.00
2024-01-11T04:25:29.681Z,600.00
2024-01-11T04:26:29.781Z,602.00
2024-01-11T04:27:29.808Z,600.00
2024-01-11T04:28:29.895Z,601.00
2024-01-11T04:29:29.964Z,606.00
2024-01-11T04:30:30.030Z,605.00
2024-01-11T04:31:30.056Z,599.00
2024-01-11T04:32:30.166Z,608.00
2024-01-11T04:33:30.261Z,602.00
2024-01-11T04:34:30.281Z,605.00
2024-01-11T04:35:37.513Z,600.00
2024-01-11T04:36:37.439Z,600.00
2024-01-11T04:37:37.433Z,600.00
2024-01-11T04:38:37.473Z,600.00
2024-01-11T04:39:37.347Z,600.00
2024-01-11T04:40:37.311Z,603.00
2024-01-11T04:41:37.383Z,603.00
2024-01-11T04:42:37.293Z,603.00
2024-01-11T04:43:37.223Z,603.00
2024-01-11T04:44:37.257Z,600.00
2024-01-11T04:45:37.159Z,600.00
2024-01-11T04:46:37.138Z,601.00
2024-01-11T04:47:37.187Z,600.00
2024-01-11T04:48:37.121Z,602.00
2024-01-11T04:49:37.039Z,603.00
2024-01-11T04:50:37.093Z,601.00
2024-01-11T04:51:36.981Z,603.00
2024-01-11T04:52:36.954Z,605.00
2024-01-11T04:53:36.977Z,602.00
2024-01-11T04:54:36.906Z,604.00
2024-01-11T04:55:36.855Z,604.00
2024-01-11T04:56:36.894Z,605.00
2024-01-11T04:57:36.787Z,604.00
2024-01-11T04:58:36.767Z,605.00
2024-01-11T04:59:36.821Z,604.00
2024-01-11T05:00:36.738Z,607.00
2024-01-11T05:01:36.727Z,608.00
2024-01-11T05:02:36.955Z,608.00
2024-01-11T05:03:36.854Z,605.00
2024-01-11T05:04:36.807Z,605.00
2024-01-11T05:05:36.908Z,609.00
2024-01-11T05:06:36.928Z,608.00
2024-01-11T05:07:36.912Z,608.00
2024-01-11T05:08:37.050Z,607.00
2024-01-11T05:09:36.978Z,612.00
2024-01-11T05:10:36.997Z,612.00
2024-01-11T05:11:37.117Z,610.00
2024-01-11T05:12:37.061Z,609.00
2024-01-11T05:13:37.097Z,607.00
2024-01-11T05:14:37.193Z,613.00
2024-01-11T05:15:37.169Z,607.00
2024-01-11T05:16:37.213Z,611.00
2024-01-11T05:17:37.304Z,608.00
2024-01-11T05:18:37.373Z,611.00
2024-01-11T05:19:37.453Z,609.00
2024-01-11T05:20:37.364Z,612.00
2024-01-11T05:21:37.366Z,608.00
2024-01-11T05:22:37.403Z,614.00
2024-01-11T05:23:37.450Z,607.00
2024-01-11T05:24:37.477Z,608.00
2024-01-11T05:25:37.521Z,609.00
2024-01-11T05:26:37.615Z,612.00
2024-01-11T05:27:37.582Z,612.00
2024-01-11T05:28:37.622Z,613.00
2024-01-11T05:29:37.692Z,612.00
2024-01-11T05:30:37.893Z,613.00
2024-01-11T05:31:37.857Z,612.00
2024-01-11T05:32:37.873Z,608.00
2024-01-11T05:33:37.942Z,613.00
2024-01-11T05:34:38.141Z,612.00
2024-01-11T05:35:38.102Z,611.00
2024-01-11T05:36:37.917Z,613.00
2024-01-11T05:37:37.954Z,605.00
2024-01-11T05:38:38.008Z,611.00
2024-01-11T05:39:38.009Z,610.00
2024-01-11T05:40:38.063Z,609.00
2024-01-11T05:41:38.206Z,611.00
2024-01-11T05:42:38.174Z,613.00
2024-01-11T05:43:38.168Z,612.00
2024-01-11T05:44:38.306Z,611.00
2024-01-11T05:45:47.340Z,613.00
2024-01-11T05:46:39.333Z,613.00
2024-01-11T05:47:38.378Z,613.00
2024-01-11T05:48:38.306Z,613.00
2024-01-11T05:49:38.133Z,616.00
2024-01-11T05:50:38.179Z,615.00
2024-01-11T05:51:38.086Z,615.00
2024-01-11T05:52:38.063Z,614.00
2024-01-11T05:53:38.105Z,609.00
2024-01-11T05:54:38.062Z,613.00
2024-01-11T05:55:38.121Z,612.00
2024-01-11T05:56:38.196Z,612.00
2024-01-11T05:57:38.194Z,609.00
2024-01-11T05:58:38.229Z,616.00
2024-01-11T05:59:38.335Z,613.00
2024-01-11T06:00:38.360Z,614.00
2024-01-11T06:01:38.374Z,613.00
2024-01-11T06:02:38.493Z,614.00
2024-01-11T06:03:38.663Z,614.00
2024-01-11T06:04:38.487Z,612.00
2024-01-11T06:05:38.581Z,612.00
2024-01-11T06:06:38.632Z,616.00
2024-01-11T06:07:38.625Z,613.00
2024-01-11T06:08:38.828Z,613.00
2024-01-11T06:09:38.709Z,613.00
2024-01-11T06:10:38.757Z,610.00
2024-01-11T06:11:38.856Z,615.00
2024-01-11T06:12:38.817Z,614.00
2024-01-11T06:13:38.858Z,608.00
2024-01-11T06:14:38.991Z,611.00
2024-01-11T06:15:38.929Z,607.00
2024-01-11T06:16:38.981Z,613.00
2024-01-11T06:17:39.069Z,612.00
2024-01-11T06:18:40.116Z,612.00
2024-01-11T06:19:38.965Z,612.00
2024-01-11T06:20:39.021Z,612.00
2024-01-11T06:21:38.908Z,612.00
2024-01-11T06:22:38.911Z,614.00
2024-01-11T06:23:39.005Z,618.00
2024-01-11T06:24:38.820Z,612.00
2024-01-11T06:25:38.786Z,622.00
2024-01-11T06:26:38.872Z,626.00
2024-01-11T06:27:38.820Z,628.00
2024-01-11T06:28:38.829Z,635.00
2024-01-11T06:29:38.908Z,642.00
2024-01-11T06:30:38.891Z,650.00
2024-01-11T06:31:38.891Z,653.00
2024-01-11T06:32:38.972Z,657.00
2024-01-11T06:33:39.001Z,663.00
2024-01-11T06:34:38.959Z,696.00
2024-01-11T06:35:38.905Z,709.00
2024-01-11T06:36:38.892Z,714.00
2024-01-11T06:37:38.920Z,769.00
2024-01-11T06:38:39.003Z,794.00
2024-01-11T06:39:38.912Z,801.00
2024-01-11T06:40:38.949Z,814.00
2024-01-11T06:41:39.068Z,794.00
2024-01-11T06:42:38.969Z,793.00
2024-01-11T06:43:38.988Z,766.00
2024-01-11T06:44:39.067Z,749.00
2024-01-11T06:45:39.027Z,752.00
2024-01-11T06:46:39.051Z,758.00
2024-01-11T06:47:39.199Z,753.00
2024-01-11T06:48:39.305Z,763.00
2024-01-11T06:49:39.178Z,756.00
2024-01-11T06:50:39.186Z,777.00
2024-01-11T06:51:39.228Z,780.00
2024-01-11T06:52:39.223Z,790.00
2024-01-11T06:53:39.347Z,789.00
2024-01-11T06:54:39.329Z,793.00
2024-01-11T06:55:39.343Z,788.00
2024-01-11T06:56:39.418Z,787.00
2024-01-11T06:57:39.423Z,800.00
2024-01-11T06:58:39.446Z,797.00
2024-01-11T06:59:39.514Z,820.00
2024-01-11T07:00:39.542Z,827.00
2024-01-11T07:01:39.564Z,834.00
2024-01-11T07:02:39.663Z,841.00
2024-01-11T07:03:39.705Z,823.00
2024-01-11T07:04:39.683Z,833.00
2024-01-11T07:05:39.814Z,833.00
2024-01-11T07:06:39.907Z,834.00
2024-01-11T07:07:39.801Z,838.00
2024-01-11T07:08:39.863Z,845.00
2024-01-11T07:09:39.871Z,842.00
2024-01-11T07:10:39.920Z,856.00
2024-01-11T07:11:40.125Z,849.00
2024-01-11T07:12:39.993Z,860.00
2024-01-11T07:13:40.360Z,859.00
2024-01-11T07:14:40.123Z,863.00
2024-01-11T07:15:40.228Z,861.00
2024-01-11T07:16:40.174Z,872.00
2024-01-11T07:17:41.182Z,868.00
2024-01-11T07:18:42.234Z,870.00
2024-01-11T07:19:40.362Z,870.00
2024-01-11T07:20:40.509Z,887.00
2024-01-11T07:21:40.384Z,874.00
2024-01-11T07:22:42.405Z,885.00
2024-01-11T07:23:40.409Z,909.00
2024-01-11T07:24:40.389Z,937.00
2024-01-11T07:25:40.363Z,954.00
2024-01-11T07:26:40.322Z,995.00
2024-01-11T07:27:41.055Z,1012.00
2024-01-11T07:28:40.194Z,1040.00
2024-01-11T07:29:40.213Z,1030.00
2024-01-11T07:30:41.225Z,1019.00
2024-01-11T07:31:41.563Z,1016.00
2024-01-11T07:32:40.394Z,1006.00
2024-01-11T07:33:40.554Z,1004.00
2024-01-11T07:34:41.161Z,1022.00
2024-01-11T07:35:41.119Z,1020.00
2024-01-11T07:36:41.169Z,1024.00
2024-01-11T07:37:41.065Z,1037.00
2024-01-11T07:38:40.518Z,1028.00
2024-01-11T07:39:40.588Z,1026.00
2024-01-11T07:40:43.471Z,1036.00
2024-01-11T07:41:40.682Z,1035.00
2024-01-11T07:42:40.485Z,1035.00
2024-01-11T07:43:48.992Z,1036.00
2024-01-11T07:44:41.461Z,1035.00
2024-01-11T07:45:41.330Z,1036.00
2024-01-11T07:46:46.838Z,1038.00
2024-01-11T07:47:41.353Z,1036.00
2024-01-11T07:48:40.347Z,1036.00
2024-01-11T07:49:40.275Z,1042.00
2024-01-11T07:50:40.227Z,1039.00
2024-01-11T07:51:40.148Z,1043.00
2024-01-11T07:52:40.201Z,1033.00
2024-01-11T07:53:40.151Z,1031.00
2024-01-11T07:54:40.080Z,1032.00
2024-01-11T07:55:40.142Z,1022.00
2024-01-11T07:56:40.222Z,1015.00
2024-01-11T07:57:40.057Z,1019.00
2024-01-11T07:58:40.028Z,1017.00
2024-01-11T07:59:40.055Z,1010.00
2024-01-11T08:00:40.596Z,1011.00
2024-01-11T08:01:39.950Z,998.00
2024-01-11T08:02:40.009Z,1004.00
2024-01-11T08:03:39.960Z,999.00
2024-01-11T08:04:40.003Z,982.00
2024-01-11T08:05:40.077Z,993.00
2024-01-11T08:06:40.125Z,980.00
2024-01-11T08:07:40.097Z,987.00
2024-01-11T08:08:40.295Z,986.00
2024-01-11T08:09:41.140Z,979.00
2024-01-11T08:10:40.075Z,985.00
2024-01-11T08:11:42.952Z,986.00
2024-01-11T08:12:40.002Z,980.00
2024-01-11T08:13:39.979Z,965.00
2024-01-11T08:14:40.069Z,960.00
2024-01-11T08:15:39.922Z,969.00
2024-01-11T08:16:40.127Z,952.00
2024-01-11T08:17:41.076Z,958.00
2024-01-11T08:18:39.889Z,916.00
2024-01-11T08:19:39.901Z,897.00
2024-01-11T08:20:39.985Z,908.00
2024-01-11T08:21:39.978Z,928.00
2024-01-11T08:22:41.018Z,928.00
2024-01-11T08:23:39.943Z,934.00
2024-01-11T08:24:39.900Z,942.00
2024-01-11T08:25:39.842Z,954.00
2024-01-11T08:26:39.825Z,987.00
2024-01-11T08:27:39.765Z,995.00
2024-01-11T08:28:40.642Z,1003.00
2024-01-11T08:29:40.623Z,994.00
2024-01-11T08:30:39.721Z,990.00
2024-01-11T08:31:40.584Z,996.00
2024-01-11T08:32:39.743Z,1000.00
2024-01-11T08:33:40.147Z,999.00
2024-01-11T08:34:39.928Z,979.00
2024-01-11T08:35:39.830Z,983.00
2024-01-11T08:36:39.799Z,982.00
2024-01-11T08:37:39.820Z,983.00
2024-01-11T08:38:39.898Z,982.00
2024-01-11T08:39:41.281Z,981.00
2024-01-11T08:40:39.992Z,975.00
2024-01-11T08:41:39.999Z,978.00
2024-01-11T08:42:39.998Z,980.00
2024-01-11T08:43:40.024Z,989.00
2024-01-11T08:44:40.094Z,992.00
2024-01-11T08:45:40.064Z,992.00
2024-01-11T08:46:40.645Z,1007.00
2024-01-11T08:47:40.488Z,1004.00
2024-01-11T08:48:41.163Z,1007.00
2024-01-11T08:49:40.173Z,1017.00
2024-01-11T08:50:40.212Z,1010.00
2024-01-11T08:51:40.218Z,1020.00
2024-01-11T08:52:40.267Z,1015.00
2024-01-11T08:53:41.234Z,1011.00
2024-01-11T08:54:40.295Z,1007.00
2024-01-11T08:55:40.334Z,1011.00
2024-01-11T08:56:40.492Z,1009.00
2024-01-11T08:57:40.378Z,1021.00
2024-01-11T08:58:40.406Z,1017.00
2024-01-11T08:59:40.585Z,1032.00
2024-01-11T09:00:40.564Z,1025.00
2024-01-11T09:01:41.010Z,1011.00
2024-01-11T09:02:40.553Z,1023.00
2024-01-11T09:03:40.592Z,1026.00
2024-01-11T09:04:40.469Z,1019.00
2024-01-11T09:05:40.535Z,1020.00
2024-01-11T09:06:40.399Z,1022.00
2024-01-11T09:07:40.342Z,1018.00
2024-01-11T09:08:40.322Z,1017.00
2024-01-11T09:09:44.483Z,1006.00
2024-01-11T09:10:41.223Z,1007.00
2024-01-11T09:11:40.319Z,1007.00
2024-01-11T09:12:40.169Z,1000.00
2024-01-11T09:13:40.138Z,1003.00
2024-01-11T09:14:40.202Z,1003.00
2024-01-11T09:15:41.684Z,997.00
2024-01-11T09:16:40.054Z,992.00
2024-01-11T09:17:40.176Z,992.00
2024-01-11T09:18:41.187Z,987.00
2024-01-11T09:19:40.126Z,998.00
2024-01-11T09:20:39.931Z,1005.00
2024-01-11T09:21:39.861Z,1025.00
2024-01-11T09:22:39.830Z,1063.00
2024-01-11T09:23:39.878Z,1120.00
2024-01-11T09:24:40.681Z,1130.00
2024-01-11T09:25:39.710Z,1143.00
2024-01-11T09:26:39.763Z,1173.00
2024-01-11T09:27:39.621Z,1196.00
2024-01-11T09:28:40.127Z,1231.00
2024-01-11T09:29:39.596Z,1248.00
2024-01-11T09:30:39.537Z,1272.00
2024-01-11T09:31:39.471Z,1288.00
2024-01-11T09:32:39.623Z,1314.00
2024-01-11T09:33:39.524Z,1328.00
2024-01-11T09:34:40.494Z,1331.00
2024-01-11T09:35:39.316Z,1345.00
2024-01-11T09:36:39.305Z,1358.00
2024-01-11T09:37:39.337Z,1351.00
2024-01-11T09:38:39.340Z,1353.00
2024-01-11T09:39:39.224Z,1359.00
2024-01-11T09:40:39.224Z,1349.00
2024-01-11T09:41:39.334Z,1365.00
2024-01-11T09:42:44.268Z,1367.00
2024-01-11T09:43:39.135Z,1367.00
2024-01-11T09:44:39.127Z,1368.00
2024-01-11T09:45:39.080Z,1356.00
2024-01-11T09:46:39.039Z,1315.00
2024-01-11T09:47:39.099Z,1260.00
2024-01-11T09:48:39.758Z,1256.00
2024-01-11T09:49:43.645Z,1258.00
2024-01-11T09:50:38.956Z,1260.00
2024-01-11T09:51:38.866Z,1272.00
2024-01-11T09:52:38.912Z,1293.00
2024-01-11T09:53:38.882Z,1304.00
2024-01-11T09:54:38.769Z,1352.00
2024-01-11T09:55:38.755Z,1344.00
2024-01-11T09:56:38.774Z,1362.00
2024-01-11T09:57:38.697Z,1330.00
2024-01-11T09:58:38.633Z,1285.00
2024-01-11T09:59:38.708Z,1252.00
2024-01-11T10:00:38.577Z,1240.00
2024-01-11T10:01:38.533Z,1225.00
2024-01-11T10:02:38.528Z,1215.00
2024-01-11T10:03:38.506Z,1187.00
2024-01-11T10:04:38.662Z,1183.00
2024-01-11T10:05:39.529Z,1184.00
2024-01-11T10:06:39.148Z,1186.00
2024-01-11T10:07:38.324Z,1184.00
2024-01-11T10:08:38.449Z,1186.00
2024-01-11T10:09:38.267Z,1191.00
2024-01-11T10:10:38.590Z,1199.00
2024-01-11T10:11:38.229Z,1210.00
2024-01-11T10:12:39.272Z,1221.00
2024-01-11T10:13:38.207Z,1222.00
2024-01-11T10:14:38.196Z,1204.00
2024-01-11T10:15:38.092Z,1193.00
2024-01-11T10:16:38.646Z,1202.00
2024-01-11T10:17:39.226Z,1219.00
2024-01-11T10:18:38.351Z,1224.00
2024-01-11T10:19:38.296Z,1238.00
2024-01-11T10:20:38.445Z,1262.00
2024-01-11T10:21:38.339Z,1286.00
2024-01-11T10:22:38.270Z,1274.00
2024-01-11T10:23:39.121Z,1262.00
2024-01-11T10:24:38.285Z,1248.00
2024-01-11T10:25:38.312Z,1240.00
2024-01-11T10:26:38.413Z,1240.00
2024-01-11T10:27:38.342Z,1234.00
2024-01-11T10:28:49.440Z,1224.00
2024-01-11T10:29:41.370Z,1224.00
2024-01-11T10:30:40.612Z,1225.00
2024-01-11T10:31:38.453Z,1225.00
2024-01-11T10:32:42.556Z,1226.00
2024-01-11T10:33:38.496Z,1226.00
2024-01-11T10:34:38.728Z,1226.00
2024-01-11T10:35:38.384Z,1236.00
2024-01-11T10:36:38.102Z,1248.00
2024-01-11T10:37:38.107Z,1270.00
2024-01-11T10:38:39.689Z,1226.00
2024-01-11T10:39:38.053Z,1231.00
2024-01-11T10:40:37.965Z,1238.00
2024-01-11T10:41:37.984Z,1257.00
2024-01-11T10:42:37.885Z,1265.00
2024-01-11T10:43:37.862Z,1264.00
2024-01-11T10:44:39.080Z,1257.00
2024-01-11T10:45:37.805Z,1272.00
2024-01-11T10:46:38.632Z,1269.00
2024-01-11T10:47:37.833Z,1282.00
2024-01-11T10:48:37.836Z,1287.00
2024-01-11T10:49:37.849Z,1295.00
2024-01-11T10:50:37.885Z,1297.00
2024-01-11T10:51:37.880Z,1275.00
2024-01-11T10:52:37.901Z,1280.00
2024-01-11T10:53:38.694Z,1270.00
2024-01-11T10:54:37.984Z,1268.00
2024-01-11T10:55:38.048Z,1252.00
2024-01-11T10:56:38.085Z,1245.00
2024-01-11T10:57:38.056Z,1258.00
2024-01-11T10:58:38.142Z,1247.00
2024-01-11T10:59:38.131Z,1250.00
2024-01-11T11:00:38.168Z,1247.00
2024-01-11T11:01:38.200Z,1249.00
2024-01-11T11:02:38.212Z,1249.00
2024-01-11T11:03:38.258Z,1251.00
2024-01-11T11:04:38.232Z,1254.00
2024-01-11T11:05:38.360Z,1267.00
2024-01-11T11:06:39.214Z,1254.00
2024-01-11T11:07:38.295Z,1247.00
2024-01-11T11:08:38.497Z,1241.00
2024-01-11T11:09:38.387Z,1250.00
2024-01-11T11:10:38.425Z,1266.00
2024-01-11T11:11:38.508Z,1246.00
2024-01-11T11:12:38.459Z,1264.00
2024-01-11T11:13:38.489Z,1265.00
2024-01-11T11:14:38.623Z,1272.00
2024-01-11T11:15:38.512Z,1272.00
2024-01-11T11:16:38.537Z,1272.00
2024-01-11T11:17:38.499Z,1276.00
2024-01-11T11:18:38.498Z,1276.00
2024-01-11T11:19:38.464Z,1278.00
2024-01-11T11:20:38.366Z,1264.00
2024-01-11T11:21:39.053Z,1269.00
2024-01-11T11:22:38.275Z,1264.00
2024-01-11T11:23:38.318Z,1254.00
2024-01-11T11:24:38.217Z,1251.00
2024-01-11T11:25:38.176Z,1251.00
2024-01-11T11:26:38.218Z,1258.00
2024-01-11T11:27:38.163Z,1264.00
2024-01-11T11:28:38.184Z,1255.00
2024-01-11T11:29:38.296Z,1256.00
2024-01-11T11:30:38.217Z,1241.00
2024-01-11T11:31:38.269Z,1243.00
2024-01-11T11:32:39.355Z,1245.00
2024-01-11T11:33:38.352Z,1241.00
2024-01-11T11:34:38.269Z,1231.00
2024-01-11T11:35:38.451Z,1230.00
2024-01-11T11:36:38.289Z,1235.00
2024-01-11T11:37:38.322Z,1236.00
2024-01-11T11:38:38.371Z,1247.00
2024-01-11T11:39:38.378Z,1241.00
2024-01-11T11:40:38.438Z,1250.00
2024-01-11T11:41:38.381Z,1250.00
2024-01-11T11:42:38.387Z,1263.00
2024-01-11T11:43:38.409Z,1271.00
2024-01-11T11:44:38.527Z,1275.00
2024-01-11T11:45:38.456Z,1274.00
2024-01-11T11:46:38.425Z,1277.00
2024-01-11T11:47:38.686Z,1266.00
2024-01-11T11:48:38.606Z,1278.00
2024-01-11T11:49:38.650Z,1268.00
2024-01-11T11:50:38.568Z,1299.00
2024-01-11T11:51:38.538Z,1300.00
2024-01-11T11:52:38.539Z,1297.00
2024-01-11T11:53:38.591Z,1293.00
2024-01-11T11:54:38.574Z,1284.00
2024-01-11T11:55:38.592Z,1278.00
2024-01-11T11:56:38.686Z,1281.00
2024-01-11T11:57:38.671Z,1278.00
2024-01-11T11:58:38.672Z,1284.00
2024-01-11T11:59:38.697Z,1277.00
2024-01-11T12:00:38.700Z,1275.00
2024-01-11T12:01:38.698Z,1290.00
2024-01-11T12:02:38.765Z,1296.00
2024-01-11T12:03:38.779Z,1304.00
2024-01-11T12:04:38.768Z,1291.00
2024-01-11T12:05:38.903Z,1295.00
2024-01-11T12:06:38.880Z,1294.00
2024-01-11T12:07:38.759Z,1295.00
2024-01-11T12:08:38.845Z,1290.00
2024-01-11T12:09:38.786Z,1289.00
2024-01-11T12:10:38.794Z,1296.00
2024-01-11T12:11:38.851Z,1288.00
2024-01-11T12:12:38.845Z,1301.00
2024-01-11T12:13:39.995Z,1308.00
2024-01-11T12:14:39.596Z,1314.00
2024-01-11T12:15:38.875Z,1317.00
2024-01-11T12:16:38.927Z,1316.00
2024-01-11T12:17:38.979Z,1319.00
2024-01-11T12:18:38.964Z,1319.00
2024-01-11T12:19:38.900Z,1328.00
2024-01-11T12:20:38.850Z,1321.00